Time;durP1;ratioP1;P1;durP2;ratioP2;P2;SDS_P1;SDS_P2;PMS_P1;PMS_P2;Temp;Humidity;BMP_temperature;BMP_pressure;BME280_temperature;BME280_humidity;BME280_pressure;Samples;Min_cycle;Max_cycle;Signal;HPM_P1;HPM_P2
2023/10/06 00:03:06;;;;;;;11.30;5.70;;;8.40;99.90;;;;;;5029744;28;20036;-82
2023/10/06 00:05:34;;;;;;;14.23;5.97;;;8.30;99.90;;;;;;5030042;28;20048;-83
2023/10/06 00:08:00;;;;;;;14.10;6.23;;;8.30;99.90;;;;;;5030745;28;20143;-83
2023/10/06 00:10:27;;;;;;;13.10;5.43;;;8.30;99.90;;;;;;5030798;28;20160;-83
2023/10/06 00:12:54;;;;;;;14.07;5.63;;;8.20;99.90;;;;;;5029948;28;20690;-83
2023/10/06 00:15:38;;;;;;;12.27;5.40;;;8.20;99.90;;;;;;5029688;28;20040;-83
2023/10/06 00:18:07;;;;;;;13.30;6.07;;;8.20;99.90;;;;;;5030196;28;20041;-83
2023/10/06 00:20:49;;;;;;;14.87;6.07;;;8.10;99.90;;;;;;5030102;28;20033;-83
2023/10/06 00:23:22;;;;;;;11.50;5.70;;;8.10;99.90;;;;;;5030570;28;20061;-83
2023/10/06 00:25:54;;;;;;;14.77;5.70;;;8.10;99.90;;;;;;5030051;28;20523;-83
2023/10/06 00:28:32;;;;;;;13.60;6.87;;;8.10;99.90;;;;;;5030643;28;21077;-83
2023/10/06 00:31:06;;;;;;;15.60;5.70;;;8.10;99.90;;;;;;5030772;28;20026;-83
2023/10/06 00:33:32;;;;;;;18.08;6.00;;;8.10;99.90;;;;;;5030855;28;20068;-83
2023/10/06 00:36:29;;;;;;;11.40;5.10;;;8.10;99.90;;;;;;5029810;28;20061;-83
2023/10/06 00:38:50;;;;;;;10.90;5.00;;;8.10;99.90;;;;;;5028067;28;20049;-83
2023/10/06 00:41:17;;;;;;;10.40;5.00;;;8.10;99.90;;;;;;5028602;28;20080;-83
2023/10/06 00:43:46;;;;;;;12.53;5.60;;;8.00;99.90;;;;;;5031468;28;20037;-83
2023/10/06 00:46:18;;;;;;;13.70;5.23;;;8.00;99.90;;;;;;5033072;28;20031;-83
2023/10/06 00:48:45;;;;;;;13.90;5.73;;;8.00;99.90;;;;;;5032512;28;20034;-82
2023/10/06 00:51:22;;;;;;;13.73;5.73;;;8.00;99.90;;;;;;5032141;28;20037;-83
2023/10/06 00:53:51;;;;;;;11.73;5.53;;;8.00;99.90;;;;;;5032147;28;20045;-83
2023/10/06 00:56:23;;;;;;;10.43;5.43;;;8.00;99.90;;;;;;5031170;28;20133;-83
2023/10/06 00:58:49;;;;;;;10.67;5.27;;;7.90;99.90;;;;;;5032710;28;20038;-83
2023/10/06 01:01:17;;;;;;;12.87;5.37;;;7.90;99.90;;;;;;5033518;28;20033;-82
2023/10/06 01:03:44;;;;;;;13.10;6.13;;;7.80;99.90;;;;;;5033022;28;20113;-82
2023/10/06 01:06:13;;;;;;;15.10;5.90;;;7.80;99.90;;;;;;5031483;28;20046;-83
2023/10/06 01:08:52;;;;;;;12.87;6.43;;;7.80;99.90;;;;;;5031558;28;20051;-83
2023/10/06 01:11:26;;;;;;;13.63;5.03;;;7.80;99.90;;;;;;5031618;28;20108;-82
2023/10/06 01:13:55;;;;;;;10.70;5.37;;;7.70;99.90;;;;;;5029380;28;20096;-83
2023/10/06 01:16:30;;;;;;;9.77;5.20;;;7.70;99.90;;;;;;5031881;28;20025;-83
2023/10/06 01:19:01;;;;;;;12.02;4.95;;;7.70;99.90;;;;;;5032918;28;20108;-83
2023/10/06 01:21:30;;;;;;;16.93;5.47;;;7.60;99.90;;;;;;5032740;28;20059;-83
2023/10/06 01:23:58;;;;;;;14.10;5.93;;;7.60;99.90;;;;;;5031735;28;20489;-83
2023/10/06 01:26:24;;;;;;;12.70;5.27;;;7.60;99.90;;;;;;5031778;28;20025;-82
2023/10/06 01:28:51;;;;;;;11.17;5.70;;;7.50;99.90;;;;;;5032591;28;20687;-83
2023/10/06 01:31:19;;;;;;;12.43;5.30;;;7.50;99.90;;;;;;5032504;28;20033;-82
2023/10/06 01:33:45;;;;;;;9.07;5.37;;;7.50;99.90;;;;;;5032812;28;20022;-83
2023/10/06 01:36:13;;;;;;;10.00;5.50;;;7.50;99.90;;;;;;5031323;28;20027;-82
2023/10/06 01:38:41;;;;;;;11.87;5.23;;;7.50;99.90;;;;;;5031081;28;20036;-82
2023/10/06 01:41:08;;;;;;;10.97;5.30;;;7.50;99.90;;;;;;5032735;28;20053;-83
2023/10/06 01:43:34;;;;;;;13.17;5.53;;;7.40;99.90;;;;;;5032004;28;20029;-82
2023/10/06 01:45:59;;;;;;;10.83;5.00;;;7.40;99.90;;;;;;5033387;28;21401;-82
2023/10/06 01:48:29;;;;;;;12.87;6.53;;;7.40;99.90;;;;;;5033332;28;20034;-82
2023/10/06 01:50:55;;;;;;;13.93;5.97;;;7.40;99.90;;;;;;5033264;28;20036;-82
2023/10/06 01:53:20;;;;;;;10.40;4.90;;;7.30;99.90;;;;;;5032872;28;20040;-82
2023/10/06 01:55:51;;;;;;;14.77;5.43;;;7.30;99.90;;;;;;5034676;28;20096;-82
2023/10/06 01:58:17;;;;;;;13.23;5.27;;;7.30;99.90;;;;;;5040772;28;20052;-81
2023/10/06 02:00:47;;;;;;;13.47;5.30;;;7.20;99.90;;;;;;5042241;28;20618;-81
2023/10/06 02:03:16;;;;;;;11.03;5.53;;;7.20;99.90;;;;;;5042442;28;20144;-81
2023/10/06 02:05:42;;;;;;;9.10;4.83;;;7.20;99.90;;;;;;5029396;28;20133;-81
2023/10/06 02:08:10;;;;;;;12.40;5.50;;;7.20;99.90;;;;;;5029203;28;20140;-82
2023/10/06 02:10:36;;;;;;;11.90;5.47;;;7.10;99.90;;;;;;5030746;28;20032;-81
2023/10/06 02:13:05;;;;;;;11.53;5.47;;;7.10;99.90;;;;;;5033079;28;20122;-81
2023/10/06 02:15:31;;;;;;;10.13;5.17;;;7.10;99.90;;;;;;5029868;28;20041;-81
2023/10/06 02:17:57;;;;;;;13.87;5.20;;;7.10;99.90;;;;;;5032084;28;20044;-81
2023/10/06 02:22:50;;;;;;;12.10;5.30;;;7.00;99.90;;;;;;5030900;28;20040;-81
2023/10/06 02:25:20;;;;;;;11.50;4.87;;;7.00;99.90;;;;;;5030086;28;20048;-81
2023/10/06 02:27:47;;;;;;;10.80;5.20;;;7.00;99.90;;;;;;5031047;28;20022;-81
2023/10/06 02:30:33;;;;;;;11.23;5.00;;;6.90;99.90;;;;;;5032061;28;20075;-81
2023/10/06 02:33:03;;;;;;;10.03;5.00;;;6.90;99.90;;;;;;5032101;28;20035;-81
2023/10/06 02:35:28;;;;;;;10.27;5.40;;;6.90;99.90;;;;;;5030020;28;20037;-81
2023/10/06 02:37:57;;;;;;;10.77;4.50;;;6.80;99.90;;;;;;5030762;28;20037;-81
2023/10/06 02:40:31;;;;;;;12.00;4.80;;;6.90;99.90;;;;;;5031419;28;20419;-81
2023/10/06 02:42:59;;;;;;;9.10;4.40;;;6.80;99.90;;;;;;5032021;28;20064;-81
2023/10/06 02:45:37;;;;;;;9.70;4.77;;;6.80;99.90;;;;;;5031588;28;20057;-81
2023/10/06 02:48:13;;;;;;;11.90;4.97;;;6.80;99.90;;;;;;5033160;28;20035;-81
2023/10/06 02:50:44;;;;;;;9.90;4.87;;;6.80;99.90;;;;;;5033780;28;20029;-81
2023/10/06 02:53:13;;;;;;;9.80;4.83;;;6.80;99.90;;;;;;5033594;28;20112;-82
2023/10/06 02:55:43;;;;;;;10.60;5.23;;;6.70;99.90;;;;;;5033784;28;20034;-82
2023/10/06 02:58:26;;;;;;;9.70;4.47;;;6.80;99.90;;;;;;5031621;28;20052;-81
2023/10/06 03:00:51;;;;;;;12.07;4.43;;;6.70;99.90;;;;;;5030722;28;20033;-81
2023/10/06 03:03:21;;;;;;;10.07;5.13;;;6.70;99.90;;;;;;5031062;28;20029;-80
2023/10/06 03:05:51;;;;;;;9.67;4.97;;;6.70;99.90;;;;;;5030194;28;20044;-81
2023/10/06 03:08:20;;;;;;;12.60;5.67;;;6.70;99.90;;;;;;5031183;28;20018;-81
2023/10/06 03:10:48;;;;;;;11.50;5.03;;;6.60;99.90;;;;;;5030564;28;20036;-81
2023/10/06 03:13:32;;;;;;;12.20;5.37;;;6.60;99.90;;;;;;5030552;28;20032;-81
2023/10/06 03:15:59;;;;;;;9.10;4.87;;;6.60;99.90;;;;;;5030546;28;20037;-81
2023/10/06 03:18:25;;;;;;;11.50;4.80;;;6.60;99.90;;;;;;5030948;28;20059;-81
2023/10/06 03:20:57;;;;;;;10.03;5.10;;;6.60;99.90;;;;;;5029706;28;20029;-81
2023/10/06 03:25:56;;;;;;;7.30;4.43;;;6.50;99.90;;;;;;5029217;28;20045;-81
2023/10/06 03:28:37;;;;;;;11.53;5.07;;;6.50;99.90;;;;;;5029438;28;20040;-81
2023/10/06 03:31:21;;;;;;;9.97;5.33;;;6.50;99.90;;;;;;5030377;28;20128;-81
2023/10/06 03:33:55;;;;;;;11.50;5.13;;;6.50;99.90;;;;;;5028657;28;20025;-81
2023/10/06 03:36:37;;;;;;;10.67;4.60;;;6.40;99.90;;;;;;5028381;28;20057;-80
2023/10/06 03:39:07;;;;;;;12.33;5.47;;;6.40;99.90;;;;;;5029339;28;20488;-81
2023/10/06 03:41:36;;;;;;;9.87;4.87;;;6.40;99.90;;;;;;5029747;28;20025;-81
2023/10/06 03:44:05;;;;;;;12.47;5.20;;;6.40;99.90;;;;;;5028143;28;20064;-81
2023/10/06 03:46:38;;;;;;;13.77;4.90;;;6.40;99.90;;;;;;5028682;28;20655;-81
2023/10/06 03:49:07;;;;;;;10.77;5.43;;;6.30;99.90;;;;;;5028406;28;20036;-81
2023/10/06 03:51:37;;;;;;;11.07;4.97;;;6.30;99.90;;;;;;5029367;28;20036;-82
2023/10/06 03:54:04;;;;;;;11.67;4.47;;;6.30;99.90;;;;;;5030974;28;20041;-81
2023/10/06 03:56:30;;;;;;;10.17;5.00;;;6.30;99.90;;;;;;5030118;28;20571;-81
2023/10/06 03:58:56;;;;;;;9.57;4.93;;;6.30;99.90;;;;;;5028214;28;20033;-81
2023/10/06 04:01:31;;;;;;;12.10;4.80;;;6.30;99.90;;;;;;5029776;28;20037;-80
2023/10/06 04:03:58;;;;;;;12.90;5.13;;;6.30;99.90;;;;;;5028913;28;20120;-81
2023/10/06 04:06:25;;;;;;;11.20;5.27;;;6.30;99.90;;;;;;5027797;28;20040;-81
2023/10/06 04:08:52;;;;;;;14.53;5.60;;;6.30;99.90;;;;;;5029143;28;20068;-81
2023/10/06 04:11:18;;;;;;;12.10;4.97;;;6.30;99.90;;;;;;5023842;28;20096;-81
2023/10/06 04:13:45;;;;;;;10.27;5.13;;;6.30;99.90;;;;;;5026955;28;20033;-81
2023/10/06 04:16:14;;;;;;;11.10;5.80;;;6.30;99.90;;;;;;5028726;28;20033;-80
2023/10/06 04:18:39;;;;;;;7.97;4.67;;;6.20;99.90;;;;;;5031100;28;20032;-81
2023/10/06 04:21:11;;;;;;;11.83;5.23;;;6.20;99.90;;;;;;5031463;28;20037;-81
2023/10/06 04:23:41;;;;;;;10.20;5.00;;;6.20;99.90;;;;;;5032320;28;20034;-81
2023/10/06 04:26:09;;;;;;;9.70;4.97;;;6.10;99.90;;;;;;5030976;28;20033;-81
2023/10/06 04:28:34;;;;;;;9.27;4.67;;;6.10;99.90;;;;;;5031122;28;20033;-80
2023/10/06 04:31:05;;;;;;;11.40;4.93;;;6.10;99.90;;;;;;5031911;28;20387;-81
2023/10/06 04:33:30;;;;;;;13.00;5.73;;;6.10;99.90;;;;;;5032163;28;20037;-81
2023/10/06 04:36:08;;;;;;;10.53;4.83;;;6.10;99.90;;;;;;5030150;28;20033;-81
2023/10/06 04:38:39;;;;;;;13.73;7.90;;;6.10;99.90;;;;;;5030692;28;20036;-81
2023/10/06 04:41:09;;;;;;;17.37;12.67;;;6.00;99.90;;;;;;5032979;28;20048;-81
2023/10/06 04:43:36;;;;;;;28.17;24.23;;;6.00;99.90;;;;;;5032790;28;20055;-81
2023/10/06 04:46:05;;;;;;;18.50;13.40;;;6.00;99.90;;;;;;5031595;28;20700;-81
2023/10/06 04:48:36;;;;;;;19.37;10.47;;;6.00;99.90;;;;;;5033296;28;20032;-81
2023/10/06 04:51:05;;;;;;;15.13;11.23;;;6.00;99.90;;;;;;5033331;28;20048;-81
2023/10/06 04:53:35;;;;;;;14.53;9.97;;;6.00;99.90;;;;;;5034745;28;20040;-81
2023/10/06 04:56:03;;;;;;;13.50;7.93;;;5.90;99.90;;;;;;5040879;28;20141;-81
2023/10/06 04:58:29;;;;;;;13.47;6.70;;;6.00;99.90;;;;;;5034227;28;20042;-81
2023/10/06 05:00:59;;;;;;;15.40;6.00;;;5.90;99.90;;;;;;5029167;28;20432;-82
2023/10/06 05:03:26;;;;;;;10.47;5.33;;;5.90;99.90;;;;;;5030549;28;20151;-81
2023/10/06 05:05:55;;;;;;;10.77;5.37;;;5.90;99.90;;;;;;5030112;28;21508;-81
2023/10/06 05:08:21;;;;;;;13.80;5.27;;;5.90;99.90;;;;;;5030568;28;20767;-81
2023/10/06 05:10:49;;;;;;;10.50;5.50;;;6.00;99.90;;;;;;5032537;28;20043;-81
2023/10/06 05:13:16;;;;;;;9.50;5.30;;;6.00;99.90;;;;;;5031056;28;20194;-81
2023/10/06 05:15:42;;;;;;;10.17;5.23;;;6.00;99.90;;;;;;5029114;28;20060;-81
2023/10/06 05:18:11;;;;;;;10.77;4.60;;;6.00;99.90;;;;;;5029909;28;20030;-81
2023/10/06 05:20:37;;;;;;;10.97;5.20;;;5.90;99.90;;;;;;5030696;28;20147;-81
2023/10/06 05:23:09;;;;;;;10.40;5.23;;;5.90;99.90;;;;;;5031029;28;20163;-81
2023/10/06 05:25:38;;;;;;;9.97;5.10;;;5.90;99.90;;;;;;5030919;28;20034;-81
2023/10/06 05:28:05;;;;;;;10.97;4.70;;;5.90;99.90;;;;;;5030350;28;20022;-82
2023/10/06 05:30:31;;;;;;;10.23;5.47;;;5.90;99.90;;;;;;5030944;28;20060;-82
2023/10/06 05:32:58;;;;;;;14.77;5.50;;;6.00;99.90;;;;;;5030346;28;20134;-82
2023/10/06 05:35:27;;;;;;;10.27;4.93;;;6.00;99.90;;;;;;5030139;28;20044;-82
2023/10/06 05:37:53;;;;;;;12.30;5.63;;;6.00;99.90;;;;;;5031906;28;20116;-81
2023/10/06 05:40:20;;;;;;;10.77;5.27;;;6.00;99.90;;;;;;5031254;28;20024;-81
2023/10/06 05:42:49;;;;;;;11.20;5.07;;;6.00;99.90;;;;;;5031271;28;20029;-82
2023/10/06 05:45:15;;;;;;;11.17;5.53;;;6.10;99.90;;;;;;5029733;28;20037;-81
2023/10/06 05:47:50;;;;;;;10.70;4.90;;;6.00;99.90;;;;;;5031231;28;20452;-81
2023/10/06 05:50:18;;;;;;;10.95;5.40;;;6.10;99.90;;;;;;5031646;28;20080;-81
2023/10/06 05:52:51;;;;;;;9.83;5.33;;;6.10;99.90;;;;;;5031556;28;20034;-81
2023/10/06 05:55:22;;;;;;;12.07;5.07;;;6.10;99.90;;;;;;5031987;28;20592;-82
2023/10/06 05:57:55;;;;;;;14.97;5.00;;;6.10;99.90;;;;;;5032762;28;20030;-82
2023/10/06 06:00:25;;;;;;;11.33;5.43;;;6.10;99.90;;;;;;5031624;28;20118;-82
2023/10/06 06:02:58;;;;;;;10.40;4.97;;;6.20;99.90;;;;;;5030214;28;20021;-81
2023/10/06 06:05:29;;;;;;;10.50;5.30;;;6.20;99.90;;;;;;5029818;28;20037;-82
2023/10/06 06:07:56;;;;;;;13.77;5.20;;;6.20;99.90;;;;;;5030468;28;20078;-82
2023/10/06 06:10:21;;;;;;;9.53;5.37;;;6.30;99.90;;;;;;5034146;28;20079;-82
2023/10/06 06:12:47;;;;;;;12.23;5.63;;;6.30;99.90;;;;;;5030648;28;20037;-82
2023/10/06 06:15:13;;;;;;;12.10;4.77;;;6.30;99.90;;;;;;5031311;28;20017;-82
2023/10/06 06:17:40;;;;;;;12.67;5.23;;;6.30;99.90;;;;;;5030929;28;20036;-82
2023/10/06 06:20:14;;;;;;;14.43;5.53;;;6.30;99.90;;;;;;5029855;28;20114;-82
2023/10/06 06:22:40;;;;;;;16.13;6.17;;;6.40;99.90;;;;;;5028704;28;20025;-82
2023/10/06 06:25:06;;;;;;;12.33;5.90;;;6.40;99.90;;;;;;5029758;28;20045;-83
2023/10/06 06:27:32;;;;;;;13.50;6.07;;;6.40;99.90;;;;;;5028518;28;20032;-82
2023/10/06 06:29:58;;;;;;;12.57;5.30;;;6.40;99.90;;;;;;5030409;28;20033;-82
2023/10/06 06:32:25;;;;;;;12.77;5.60;;;6.50;99.90;;;;;;5028339;28;20543;-82
2023/10/06 06:34:51;;;;;;;11.90;4.80;;;6.50;99.90;;;;;;5028174;28;20029;-82
2023/10/06 06:37:17;;;;;;;17.43;6.00;;;6.60;99.90;;;;;;5029337;28;20033;-82
2023/10/06 06:39:44;;;;;;;15.60;6.20;;;6.70;99.90;;;;;;5028879;28;20653;-82
2023/10/06 06:42:10;;;;;;;15.37;5.87;;;6.80;99.90;;;;;;5028636;28;20029;-82
2023/10/06 06:44:36;;;;;;;9.77;5.33;;;6.80;99.90;;;;;;5028216;28;20044;-82
2023/10/06 06:47:03;;;;;;;15.23;6.53;;;6.90;99.90;;;;;;5027211;28;20033;-82
2023/10/06 06:49:29;;;;;;;14.40;6.70;;;7.00;99.90;;;;;;5026468;28;20045;-82
2023/10/06 06:51:58;;;;;;;16.10;6.60;;;7.10;99.90;;;;;;5027711;28;20037;-83
2023/10/06 06:54:24;;;;;;;12.10;6.07;;;7.20;99.90;;;;;;5027291;28;20035;-82
2023/10/06 06:56:50;;;;;;;14.00;6.53;;;7.30;99.90;;;;;;5026984;28;20581;-82
2023/10/06 06:59:17;;;;;;;14.33;6.07;;;7.40;99.90;;;;;;5026799;28;20101;-83
2023/10/06 07:01:43;;;;;;;10.50;5.80;;;7.50;99.90;;;;;;5025703;28;20132;-82
2023/10/06 07:04:08;;;;;;;15.40;6.10;;;7.60;99.90;;;;;;5024809;28;20206;-83
2023/10/06 07:06:34;;;;;;;10.93;5.93;;;7.80;99.90;;;;;;5027103;28;20029;-82
2023/10/06 07:08:59;;;;;;;19.47;6.70;;;7.90;99.90;;;;;;5026535;28;20055;-82
2023/10/06 07:11:27;;;;;;;16.50;6.43;;;8.00;99.90;;;;;;5028186;28;20037;-82
2023/10/06 07:13:53;;;;;;;9.97;5.50;;;8.10;99.90;;;;;;5027372;28;20037;-82
2023/10/06 07:16:24;;;;;;;13.10;6.50;;;8.20;99.90;;;;;;5026915;28;20029;-82
2023/10/06 07:18:50;;;;;;;14.73;6.60;;;8.40;99.90;;;;;;5027100;28;20038;-82
2023/10/06 07:21:17;;;;;;;15.63;6.97;;;8.60;99.90;;;;;;5027760;28;20246;-82
2023/10/06 07:23:45;;;;;;;18.93;5.80;;;8.80;99.90;;;;;;5026763;28;20088;-82
2023/10/06 07:26:11;;;;;;;11.80;6.73;;;8.90;99.90;;;;;;5027693;28;20048;-82
2023/10/06 07:28:39;;;;;;;15.67;6.03;;;9.10;99.90;;;;;;5025743;28;20033;-82
2023/10/06 07:31:16;;;;;;;19.57;6.70;;;9.20;99.90;;;;;;5027706;28;20084;-82
2023/10/06 07:33:47;;;;;;;16.27;6.80;;;9.40;99.90;;;;;;5027250;28;20017;-82
2023/10/06 07:36:17;;;;;;;15.97;6.33;;;9.60;99.90;;;;;;5027465;28;20040;-82
2023/10/06 07:38:43;;;;;;;18.63;7.47;;;9.80;99.90;;;;;;5027772;28;20025;-81
2023/10/06 07:41:19;;;;;;;22.13;7.30;;;10.00;99.90;;;;;;5027858;28;21322;-82
2023/10/06 07:43:48;;;;;;;26.10;7.13;;;10.20;99.90;;;;;;5026790;28;20113;-83
2023/10/06 07:46:15;;;;;;;26.83;8.00;;;10.30;99.90;;;;;;5026795;28;20041;-82
2023/10/06 07:48:42;;;;;;;22.60;7.30;;;10.50;99.90;;;;;;5026939;28;20093;-83
2023/10/06 07:51:08;;;;;;;27.43;7.37;;;10.60;99.90;;;;;;5037852;28;20103;-82
2023/10/06 07:53:38;;;;;;;20.30;8.03;;;10.70;99.90;;;;;;5048103;28;20077;-83
2023/10/06 07:56:08;;;;;;;20.20;7.03;;;10.90;99.90;;;;;;5043406;28;20385;-82
2023/10/06 07:58:37;;;;;;;25.07;8.43;;;11.10;99.90;;;;;;5028874;28;20021;-83
2023/10/06 08:01:08;;;;;;;17.35;7.68;;;11.20;99.90;;;;;;5028989;28;20044;-83
2023/10/06 08:03:41;;;;;;;20.77;8.15;;;11.40;99.90;;;;;;5027876;28;20108;-83
2023/10/06 08:06:07;;;;;;;15.20;6.72;;;11.50;99.90;;;;;;5030673;28;20087;-83
2023/10/06 08:08:34;;;;;;;21.67;7.53;;;11.70;99.90;;;;;;5027967;28;20114;-83
2023/10/06 08:11:03;;;;;;;23.10;7.38;;;11.90;99.90;;;;;;5027775;28;20086;-82
2023/10/06 08:13:37;;;;;;;23.02;7.55;;;12.00;99.90;;;;;;5028546;28;20041;-83
2023/10/06 08:16:05;;;;;;;15.00;6.45;;;12.10;99.90;;;;;;5028653;28;20033;-82
2023/10/06 08:18:32;;;;;;;22.25;7.88;;;12.30;99.90;;;;;;5027688;28;20084;-83
2023/10/06 08:21:00;;;;;;;18.83;6.82;;;12.50;99.90;;;;;;5028251;28;20053;-83
2023/10/06 08:23:27;;;;;;;15.07;7.13;;;12.70;99.90;;;;;;5030166;28;20556;-83
2023/10/06 08:25:56;;;;;;;15.93;6.22;;;12.80;99.90;;;;;;5028312;28;20520;-83
2023/10/06 08:28:24;;;;;;;17.00;6.82;;;13.00;99.90;;;;;;5028371;28;20047;-83
2023/10/06 08:30:49;;;;;;;16.05;6.15;;;13.20;99.90;;;;;;5030195;28;20056;-83
2023/10/06 08:33:15;;;;;;;15.90;6.10;;;13.30;99.90;;;;;;5030480;28;20037;-84
2023/10/06 08:35:41;;;;;;;14.90;6.18;;;13.50;99.90;;;;;;5027426;28;20025;-83
2023/10/06 08:38:07;;;;;;;13.88;5.78;;;13.70;99.90;;;;;;5027428;28;20027;-83
2023/10/06 08:40:36;;;;;;;16.75;6.22;;;13.90;99.90;;;;;;5028340;28;20029;-83
2023/10/06 08:43:02;;;;;;;23.17;6.43;;;14.00;99.90;;;;;;5025941;28;20075;-75
2023/10/06 08:45:30;;;;;;;11.75;5.32;;;14.30;99.90;;;;;;5020688;28;20151;-76
2023/10/06 08:48:01;;;;;;;11.75;4.78;;;14.40;99.90;;;;;;5020506;28;20037;-75
2023/10/06 08:50:31;;;;;;;27.27;6.00;;;14.60;99.90;;;;;;5021291;28;20037;-75
2023/10/06 08:52:58;;;;;;;11.40;5.47;;;14.80;99.90;;;;;;5021806;28;20029;-76
2023/10/06 08:55:25;;;;;;;9.65;5.20;;;15.00;99.90;;;;;;5021290;28;20037;-75
2023/10/06 08:57:53;;;;;;;12.60;5.45;;;15.10;99.90;;;;;;5021880;28;20064;-76
2023/10/06 09:00:22;;;;;;;13.30;5.22;;;15.20;99.90;;;;;;5021979;28;20965;-75
2023/10/06 09:02:49;;;;;;;8.60;4.70;;;15.30;99.90;;;;;;5021510;28;20030;-84
2023/10/06 09:05:15;;;;;;;11.70;4.78;;;15.40;99.90;;;;;;5027660;28;20082;-83
2023/10/06 09:08:00;;;;;;;9.43;4.53;;;15.50;99.90;;;;;;5027981;28;20037;-84
2023/10/06 09:10:29;;;;;;;;;;;15.60;99.90;;;;;;5031531;28;20036;-83
2023/10/06 09:13:04;;;;;;;11.20;4.60;;;15.90;99.90;;;;;;5032153;28;20682;-83
2023/10/06 09:15:30;;;;;;;9.23;4.78;;;16.10;99.90;;;;;;5032151;28;20037;-82
2023/10/06 09:17:57;;;;;;;10.50;4.55;;;16.30;99.90;;;;;;5033735;28;20042;-82
2023/10/06 09:20:36;;;;;;;10.38;4.47;;;16.60;99.90;;;;;;5034136;28;20026;-82
2023/10/06 09:23:03;;;;;;;9.55;4.55;;;16.80;99.90;;;;;;5031689;28;20021;-83
2023/10/06 09:25:45;;;;;;;7.05;4.47;;;16.90;99.90;;;;;;5022735;28;20040;-82
2023/10/06 09:28:13;;;;;;;8.10;4.07;;;17.00;99.90;;;;;;5020723;28;20033;-84
2023/10/06 09:30:56;;;;;;;7.32;3.92;;;17.10;99.90;;;;;;5022534;28;20022;-82
2023/10/06 09:33:25;;;;;;;7.28;3.88;;;17.30;99.90;;;;;;5024162;28;20060;-81
2023/10/06 09:36:23;;;;;;;8.13;4.00;;;17.60;99.90;;;;;;5021457;28;20030;-81
2023/10/06 09:38:49;;;;;;;8.95;4.43;;;17.80;99.90;;;;;;5017086;28;20044;-83
2023/10/06 09:41:32;;;;;;;7.43;4.35;;;17.70;99.90;;;;;;5026535;28;20388;-82
2023/10/06 09:44:05;;;;;;;8.50;4.25;;;17.70;99.90;;;;;;5024461;28;20044;-75
2023/10/06 09:46:34;;;;;;;9.32;4.47;;;17.80;99.90;;;;;;5022714;28;20038;-76
2023/10/06 09:49:05;;;;;;;8.27;4.35;;;17.90;99.90;;;;;;5024324;28;20045;-76
2023/10/06 09:51:38;;;;;;;8.18;4.35;;;18.00;99.90;;;;;;5025224;28;20818;-76
2023/10/06 09:54:09;;;;;;;7.85;3.85;;;18.00;99.90;;;;;;5024225;28;20049;-77
2023/10/06 09:56:35;;;;;;;10.00;4.70;;;18.10;99.90;;;;;;5023876;28;20025;-76
2023/10/06 09:59:01;;;;;;;9.02;4.78;;;18.20;99.90;;;;;;5024802;28;20049;-75
2023/10/06 10:01:30;;;;;;;7.93;4.78;;;18.20;99.90;;;;;;5024801;28;20033;-75
2023/10/06 10:03:57;;;;;;;10.48;5.05;;;18.30;99.90;;;;;;5024506;28;20515;-75
2023/10/06 10:06:23;;;;;;;6.90;4.32;;;18.20;99.90;;;;;;5024339;28;20036;-75
2023/10/06 10:08:51;;;;;;;7.88;4.78;;;18.20;99.90;;;;;;5025473;28;20037;-78
2023/10/06 10:11:39;;;;;;;6.95;4.15;;;18.30;99.90;;;;;;5025890;28;20120;-76
2023/10/06 10:14:43;;;;;;;9.98;5.28;;;18.40;99.90;;;;;;5024524;28;20029;-77
2023/10/06 10:17:30;;;;;;;8.80;4.45;;;18.50;99.90;;;;;;5025135;28;20029;-76
2023/10/06 10:19:56;;;;;;;10.23;4.88;;;18.50;99.90;;;;;;5024963;28;20415;-77
2023/10/06 10:22:23;;;;;;;8.30;4.60;;;18.50;99.90;;;;;;5027377;28;20048;-78
2023/10/06 10:24:48;;;;;;;12.20;5.05;;;18.60;99.90;;;;;;5026387;28;20520;-78
2023/10/06 10:27:20;;;;;;;11.50;4.88;;;18.60;99.90;;;;;;5026758;28;20037;-78
2023/10/06 10:29:47;;;;;;;7.38;4.78;;;18.70;99.90;;;;;;5026311;28;20057;-78
2023/10/06 10:32:25;;;;;;;8.70;5.57;;;18.90;99.90;;;;;;5025951;28;20060;-78
2023/10/06 10:35:12;;;;;;;12.32;5.45;;;19.00;99.90;;;;;;5021626;28;20526;-78
2023/10/06 10:38:11;;;;;;;9.98;5.10;;;19.10;99.90;;;;;;5025384;28;20037;-78
2023/10/06 10:40:47;;;;;;;7.53;5.10;;;19.20;99.90;;;;;;5015295;28;20041;-78
2023/10/06 10:43:14;;;;;;;9.88;5.00;;;19.50;99.90;;;;;;5026606;28;20044;-78
2023/10/06 10:45:44;;;;;;;8.52;5.03;;;19.50;99.90;;;;;;5026839;28;20042;-78
2023/10/06 10:48:14;;;;;;;11.13;4.82;;;19.50;99.90;;;;;;5029342;28;20527;-76
2023/10/06 10:51:05;;;;;;;8.75;4.60;;;19.50;99.90;;;;;;5030039;28;20033;-77
2023/10/06 10:53:34;;;;;;;8.88;4.05;;;19.60;99.90;;;;;;5027870;28;20049;-78
2023/10/06 10:56:01;;;;;;;9.95;4.75;;;19.60;99.90;;;;;;5026770;28;20033;-78
2023/10/06 10:58:42;;;;;;;8.90;4.22;;;19.70;99.90;;;;;;5028136;28;20594;-79
2023/10/06 11:01:27;;;;;;;7.45;4.53;;;19.70;99.90;;;;;;5026452;28;20143;-78
2023/10/06 11:04:18;;;;;;;9.13;5.32;;;19.70;99.90;;;;;;5025045;28;20609;-77
2023/10/06 11:06:45;;;;;;;8.70;4.65;;;19.70;99.90;;;;;;5026418;28;20038;-78
2023/10/06 11:09:12;;;;;;;10.05;4.00;;;19.80;99.90;;;;;;5028777;28;20025;-79
2023/10/06 11:11:41;;;;;;;9.27;4.20;;;19.90;99.90;;;;;;5020392;28;20120;-77
2023/10/06 11:14:07;;;;;;;9.13;4.00;;;19.90;99.90;;;;;;5024687;28;20092;-77
2023/10/06 11:16:35;;;;;;;12.20;4.47;;;20.00;99.90;;;;;;5023870;28;20032;-78
2023/10/06 11:19:03;;;;;;;7.72;4.07;;;20.00;99.90;;;;;;5024929;28;20056;-78
2023/10/06 11:21:30;;;;;;;8.77;4.63;;;20.20;99.90;;;;;;5024915;28;20129;-79
2023/10/06 11:23:58;;;;;;;8.73;4.20;;;20.20;99.90;;;;;;5023276;28;20028;-75
2023/10/06 11:26:33;;;;;;;8.77;4.20;;;20.20;99.90;;;;;;5021210;28;20029;-77
2023/10/06 11:29:00;;;;;;;11.00;4.93;;;20.40;99.90;;;;;;5021364;28;20068;-76
2023/10/06 11:31:29;;;;;;;7.78;3.97;;;20.50;99.90;;;;;;5022139;28;20037;-77
2023/10/06 11:33:56;;;;;;;10.23;3.75;;;20.50;99.90;;;;;;5020538;28;20053;-77
2023/10/06 11:36:22;;;;;;;6.65;3.70;;;20.70;99.90;;;;;;5022411;28;20035;-77
2023/10/06 11:38:48;;;;;;;10.77;4.00;;;20.80;99.90;;;;;;5022844;28;20032;-76
2023/10/06 11:41:27;;;;;;;11.15;4.25;;;20.80;99.90;;;;;;5022724;28;20040;-75
2023/10/06 11:43:58;;;;;;;9.77;4.30;;;20.80;99.90;;;;;;5022004;28;20040;-77
2023/10/06 11:46:23;;;;;;;10.60;4.40;;;20.90;99.90;;;;;;5021571;28;20033;-77
2023/10/06 11:48:52;;;;;;;8.98;3.90;;;21.30;99.90;;;;;;5021437;28;20048;-76
2023/10/06 11:51:18;;;;;;;8.90;4.03;;;21.40;99.90;;;;;;5023142;28;20495;-76
2023/10/06 11:53:44;;;;;;;6.85;3.97;;;21.60;99.90;;;;;;5022634;28;20108;-77
2023/10/06 11:56:12;;;;;;;9.43;3.88;;;21.80;99.90;;;;;;5016341;28;20121;-75
2023/10/06 11:58:42;;;;;;;9.50;4.53;;;21.80;99.90;;;;;;5020366;28;20063;-77
2023/10/06 12:01:36;;;;;;;7.55;4.15;;;21.80;99.90;;;;;;5017850;28;20125;-76
2023/10/06 12:04:04;;;;;;;6.18;3.92;;;21.90;99.90;;;;;;5014045;28;20038;-76
2023/10/06 12:06:40;;;;;;;10.52;4.40;;;22.20;99.90;;;;;;5016038;28;20166;-76
2023/10/06 12:09:08;;;;;;;9.88;3.85;;;22.20;99.90;;;;;;5014948;28;20048;-75
2023/10/06 12:11:33;;;;;;;7.50;3.83;;;22.10;99.90;;;;;;5016613;28;20175;-76
2023/10/06 12:13:59;;;;;;;9.60;4.72;;;22.10;99.90;;;;;;5016116;28;21433;-76
2023/10/06 12:16:25;;;;;;;6.78;3.70;;;22.00;99.90;;;;;;5016695;28;20480;-75
2023/10/06 12:18:51;;;;;;;10.00;3.90;;;21.80;99.90;;;;;;5014529;28;20033;-76
2023/10/06 12:21:17;;;;;;;9.13;3.80;;;21.70;99.90;;;;;;5013320;28;20030;-76
2023/10/06 12:23:43;;;;;;;5.93;3.58;;;21.60;99.90;;;;;;5011906;28;21326;-75
2023/10/06 12:26:08;;;;;;;8.80;3.47;;;21.50;99.90;;;;;;5012088;28;20060;-76
2023/10/06 12:28:34;;;;;;;7.93;3.78;;;21.70;99.90;;;;;;5011174;28;20187;-75
2023/10/06 12:31:02;;;;;;;8.85;3.42;;;21.60;99.90;;;;;;5012603;28;20037;-76
2023/10/06 12:33:28;;;;;;;7.57;3.70;;;21.70;99.90;;;;;;5014952;28;20037;-77
2023/10/06 12:35:54;;;;;;;11.02;3.75;;;21.60;99.90;;;;;;5018368;28;20508;-76
2023/10/06 12:38:19;;;;;;;11.60;4.18;;;21.50;99.90;;;;;;5021166;28;20022;-76
2023/10/06 12:40:48;;;;;;;8.48;3.95;;;21.50;99.90;;;;;;5022723;28;20128;-76
2023/10/06 12:43:16;;;;;;;7.50;4.10;;;21.50;99.90;;;;;;5022325;28;20103;-76
2023/10/06 12:45:41;;;;;;;8.15;3.85;;;21.40;99.90;;;;;;5021925;28;20211;-76
2023/10/06 12:48:07;;;;;;;7.32;3.80;;;21.50;99.90;;;;;;5022717;28;20043;-76
2023/10/06 12:50:43;;;;;;;8.90;4.10;;;21.50;99.90;;;;;;5023657;28;20029;-78
2023/10/06 12:53:10;;;;;;;7.13;4.10;;;21.30;99.90;;;;;;5026464;28;20033;-78
2023/10/06 12:55:36;;;;;;;8.43;4.28;;;21.20;99.90;;;;;;5026541;28;20080;-78
2023/10/06 12:58:03;;;;;;;6.65;3.30;;;21.00;99.90;;;;;;5027148;28;20032;-77
2023/10/06 13:00:30;;;;;;;6.80;3.33;;;20.90;99.90;;;;;;5028700;28;20723;-77
2023/10/06 13:02:56;;;;;;;8.95;3.13;;;20.80;99.90;;;;;;5028656;28;20029;-77
2023/10/06 13:05:22;;;;;;;8.38;3.50;;;20.80;99.90;;;;;;5028996;28;21513;-77